createdAt,value
2022-08-26T00:00:49.186Z,7.57
2022-08-26T00:03:17.284Z,9.55
2022-08-26T00:05:44.946Z,9.95
2022-08-26T00:08:14.613Z,8.85
2022-08-26T00:10:42.133Z,8.02
2022-08-26T00:13:09.839Z,9.40
2022-08-26T00:15:37.625Z,8.52
2022-08-26T00:18:21.750Z,12.07
2022-08-26T00:20:49.570Z,8.40
2022-08-26T00:23:16.608Z,7.35
2022-08-26T00:25:43.746Z,10.23
2022-08-26T00:28:10.930Z,8.35
2022-08-26T00:30:38.526Z,10.57
2022-08-26T00:33:07.127Z,9.70
2022-08-26T00:35:34.368Z,8.30
2022-08-26T00:38:03.431Z,9.02
2022-08-26T00:40:34.376Z,9.52
2022-08-26T00:43:03.091Z,9.02
2022-08-26T00:45:42.081Z,10.80
2022-08-26T00:48:13.468Z,9.40
2022-08-26T00:50:47.372Z,10.93
2022-08-26T00:53:14.260Z,9.35
2022-08-26T00:55:41.433Z,9.55
2022-08-26T00:58:08.837Z,10.15
2022-08-26T01:00:35.672Z,10.13
2022-08-26T01:03:03.374Z,8.85
2022-08-26T01:05:33.260Z,10.00
2022-08-26T01:08:00.456Z,9.40
2022-08-26T01:10:30.999Z,10.13
2022-08-26T01:13:00.973Z,17.15
2022-08-26T01:15:32.767Z,9.82
2022-08-26T01:17:59.904Z,8.52
2022-08-26T01:20:35.090Z,7.53
2022-08-26T01:23:05.913Z,11.88
2022-08-26T01:25:39.364Z,11.63
2022-08-26T01:28:10.009Z,8.50
2022-08-26T01:30:39.351Z,7.90
2022-08-26T01:33:12.722Z,8.65
2022-08-26T01:35:40.201Z,8.45
2022-08-26T01:38:08.598Z,9.20
2022-08-26T01:40:38.515Z,10.18
2022-08-26T01:43:08.135Z,10.20
2022-08-26T01:45:43.150Z,12.43
2022-08-26T01:48:14.219Z,10.60
2022-08-26T01:50:43.164Z,9.77
2022-08-26T01:53:14.750Z,11.93
2022-08-26T01:55:44.896Z,9.57
2022-08-26T01:58:16.554Z,10.48
2022-08-26T02:00:44.288Z,9.75
2022-08-26T02:03:11.106Z,9.63
2022-08-26T02:05:39.445Z,8.77
2022-08-26T02:08:07.070Z,7.53
2022-08-26T02:10:35.082Z,10.77
2022-08-26T02:13:02.832Z,9.10
2022-08-26T02:15:29.917Z,8.68
2022-08-26T02:17:56.971Z,9.25
2022-08-26T02:20:25.199Z,10.90
2022-08-26T02:22:53.318Z,10.25
2022-08-26T02:25:24.877Z,10.93
2022-08-26T02:27:53.162Z,9.05
2022-08-26T02:30:23.888Z,8.85
2022-08-26T02:32:52.912Z,7.60
2022-08-26T02:35:22.019Z,10.50
2022-08-26T02:37:49.476Z,12.20
2022-08-26T02:40:18.111Z,10.30
2022-08-26T02:42:45.074Z,8.55
2022-08-26T02:45:13.097Z,10.60
2022-08-26T02:47:43.426Z,12.52
2022-08-26T02:50:10.041Z,12.23
2022-08-26T02:52:37.179Z,9.10
2022-08-26T02:55:05.510Z,9.43
2022-08-26T02:57:32.181Z,9.68
2022-08-26T02:59:59.465Z,10.25
2022-08-26T03:02:28.322Z,11.13
2022-08-26T03:04:58.104Z,9.07
2022-08-26T03:07:28.918Z,9.02
2022-08-26T03:09:56.277Z,10.20
2022-08-26T03:12:23.184Z,9.05
2022-08-26T03:14:49.770Z,10.88
2022-08-26T03:17:16.570Z,10.18
2022-08-26T03:19:44.469Z,10.30
2022-08-26T03:22:11.750Z,10.95
2022-08-26T03:24:41.217Z,13.20
2022-08-26T03:27:11.052Z,9.80
2022-08-26T03:29:38.818Z,12.98
2022-08-26T03:32:05.822Z,10.40
2022-08-26T03:34:32.361Z,12.35
2022-08-26T03:37:00.441Z,13.98
2022-08-26T03:39:27.447Z,8.93
2022-08-26T03:41:58.696Z,10.52
2022-08-26T03:44:25.334Z,10.63
2022-08-26T03:46:52.229Z,10.30
2022-08-26T03:49:18.827Z,9.60
2022-08-26T03:51:45.446Z,8.68
2022-08-26T03:54:13.525Z,11.63
2022-08-26T03:56:40.242Z,12.02
2022-08-26T03:59:07.540Z,10.40
2022-08-26T04:01:34.700Z,10.10
2022-08-26T04:04:01.281Z,11.05
2022-08-26T04:06:30.442Z,11.55
2022-08-26T04:08:59.137Z,11.15
2022-08-26T04:11:28.670Z,10.40
2022-08-26T04:14:03.108Z,12.02
2022-08-26T04:16:29.911Z,13.60
2022-08-26T04:18:57.543Z,15.07
2022-08-26T04:21:26.140Z,11.10
2022-08-26T04:23:53.580Z,11.55
2022-08-26T04:26:21.369Z,11.05
2022-08-26T04:28:51.020Z,12.15
2022-08-26T04:31:18.888Z,13.02
2022-08-26T04:33:47.461Z,12.00
2022-08-26T04:36:16.483Z,11.45
2022-08-26T04:38:43.201Z,14.23
2022-08-26T04:41:15.560Z,13.27
2022-08-26T04:43:43.816Z,15.98
2022-08-26T04:46:12.980Z,17.45
2022-08-26T04:48:40.567Z,23.25
2022-08-26T04:51:07.127Z,26.20
2022-08-26T04:53:34.635Z,33.90
2022-08-26T04:56:01.388Z,39.10
2022-08-26T04:58:30.750Z,35.25
2022-08-26T05:00:57.376Z,53.28
2022-08-26T05:03:26.281Z,49.75
2022-08-26T05:05:53.668Z,54.92
2022-08-26T05:08:21.576Z,54.03
2022-08-26T05:10:50.685Z,57.08
2022-08-26T05:13:20.608Z,51.53
2022-08-26T05:15:48.243Z,59.03
2022-08-26T05:18:16.981Z,62.47
2022-08-26T05:20:50.652Z,60.90
2022-08-26T05:23:18.073Z,62.42
2022-08-26T05:25:47.000Z,59.58
2022-08-26T05:28:15.947Z,60.00
2022-08-26T05:30:43.028Z,61.72
2022-08-26T05:33:11.628Z,61.83
2022-08-26T05:35:39.102Z,73.20
2022-08-26T05:38:12.686Z,58.92
2022-08-26T05:40:41.586Z,66.95
2022-08-26T05:43:08.997Z,63.78
2022-08-26T05:45:36.149Z,63.55
2022-08-26T05:48:03.121Z,60.28
2022-08-26T05:50:36.541Z,59.45
2022-08-26T05:53:06.944Z,58.00
2022-08-26T05:55:33.710Z,50.15
2022-08-26T05:58:01.030Z,54.35
2022-08-26T06:00:29.347Z,53.65
2022-08-26T06:02:55.966Z,56.92
2022-08-26T06:05:22.536Z,54.45
2022-08-26T06:07:49.384Z,54.63
2022-08-26T06:10:33.818Z,57.53
2022-08-26T06:13:04.605Z,54.58
2022-08-26T06:15:41.940Z,52.20
2022-08-26T06:18:09.054Z,48.50
2022-08-26T06:20:35.822Z,52.80
2022-08-26T06:23:03.857Z,49.42
2022-08-26T06:25:32.430Z,50.83
2022-08-26T06:27:59.044Z,48.42
2022-08-26T06:30:26.502Z,53.83
2022-08-26T06:32:53.385Z,48.60
2022-08-26T06:35:20.009Z,49.63
2022-08-26T06:37:47.706Z,58.25
2022-08-26T06:40:14.351Z,47.20
2022-08-26T06:42:42.338Z,44.65
2022-08-26T06:45:10.687Z,50.75
2022-08-26T06:47:41.491Z,49.45
2022-08-26T06:50:08.755Z,43.25
2022-08-26T06:52:35.317Z,47.10
2022-08-26T06:55:02.031Z,43.13
2022-08-26T06:57:28.732Z,50.53
2022-08-26T06:59:59.564Z,48.63
2022-08-26T07:02:28.441Z,48.58
2022-08-26T07:04:56.825Z,45.28
2022-08-26T07:07:23.487Z,46.72
2022-08-26T07:09:52.486Z,42.55
2022-08-26T07:12:19.444Z,41.95
2022-08-26T07:14:47.326Z,43.55
2022-08-26T07:17:16.510Z,40.90
2022-08-26T07:19:43.246Z,43.03
2022-08-26T07:22:09.876Z,39.67
2022-08-26T07:24:39.426Z,46.45
2022-08-26T07:27:08.921Z,40.03
2022-08-26T07:29:36.993Z,42.20
2022-08-26T07:32:04.122Z,35.97
2022-08-26T07:34:33.316Z,34.95
2022-08-26T07:37:00.441Z,34.40
2022-08-26T07:39:28.067Z,36.55
2022-08-26T07:41:54.996Z,36.33
2022-08-26T07:44:22.193Z,35.22
2022-08-26T07:46:53.191Z,39.90
2022-08-26T07:49:20.929Z,36.67
2022-08-26T07:51:49.239Z,32.60
2022-08-26T07:54:15.865Z,31.58
2022-08-26T07:56:44.285Z,36.63
2022-08-26T07:59:14.073Z,35.83
2022-08-26T08:01:44.706Z,33.42
2022-08-26T08:04:12.521Z,31.65
2022-08-26T08:06:41.482Z,38.92
2022-08-26T08:09:13.311Z,31.45
2022-08-26T08:11:40.202Z,34.92
2022-08-26T08:14:08.430Z,34.53
2022-08-26T08:16:37.246Z,31.55
2022-08-26T08:19:05.742Z,38.17
2022-08-26T08:21:32.571Z,36.47
2022-08-26T08:23:59.270Z,32.33
2022-08-26T08:26:27.440Z,35.45
2022-08-26T08:28:55.474Z,36.38
2022-08-26T08:31:52.134Z,30.27
2022-08-26T08:34:11.096Z,28.60
2022-08-26T08:36:37.727Z,30.42
2022-08-26T08:39:05.067Z,31.30
2022-08-26T08:41:48.200Z,30.13
2022-08-26T08:44:18.380Z,27.58
2022-08-26T08:49:15.255Z,33.67
2022-08-26T08:51:48.005Z,28.90
2022-08-26T08:54:14.982Z,29.17
2022-08-26T08:56:50.083Z,30.05
2022-08-26T08:59:19.995Z,29.17
2022-08-26T09:01:59.695Z,27.63
2022-08-26T09:04:58.222Z,23.45
2022-08-26T09:07:28.120Z,23.95
2022-08-26T09:09:58.018Z,25.65
2022-08-26T09:12:29.390Z,26.40
2022-08-26T09:15:02.144Z,20.92
2022-08-26T09:17:43.907Z,21.58
2022-08-26T09:20:17.579Z,20.80
2022-08-26T09:22:44.434Z,22.13
2022-08-26T09:25:13.477Z,26.95
2022-08-26T09:27:44.015Z,26.35
2022-08-26T09:30:13.533Z,20.77
2022-08-26T09:32:40.858Z,22.90
2022-08-26T09:35:23.437Z,19.20
2022-08-26T09:40:22.092Z,22.90
2022-08-26T09:43:06.760Z,20.65
2022-08-26T09:45:33.656Z,23.08
2022-08-26T09:48:02.321Z,22.52
2022-08-26T09:50:33.949Z,19.98
2022-08-26T09:53:14.628Z,18.45
2022-08-26T09:55:43.189Z,20.40
2022-08-26T09:58:15.420Z,21.20
2022-08-26T10:00:43.493Z,18.17
2022-08-26T10:03:21.553Z,21.30
2022-08-26T10:05:57.284Z,21.52
2022-08-26T10:08:27.681Z,19.75
2022-08-26T10:10:55.749Z,22.80
2022-08-26T10:13:29.537Z,21.13
2022-08-26T10:16:03.826Z,24.05
2022-08-26T10:18:35.403Z,21.77
2022-08-26T10:21:07.368Z,21.67
2022-08-26T10:26:12.348Z,22.88
2022-08-26T10:28:45.849Z,25.65
2022-08-26T10:31:28.627Z,25.00
2022-08-26T10:33:58.891Z,28.20
2022-08-26T10:36:30.552Z,31.50
2022-08-26T10:38:59.871Z,24.70
2022-08-26T10:41:31.424Z,23.75
2022-08-26T10:44:01.344Z,29.30
2022-08-26T10:46:36.929Z,21.70
2022-08-26T10:49:06.835Z,26.25
2022-08-26T10:51:36.120Z,24.27
2022-08-26T10:54:09.416Z,23.05
2022-08-26T10:56:45.865Z,18.63
2022-08-26T10:59:24.230Z,23.15
2022-08-26T11:01:57.571Z,21.17
2022-08-26T11:04:51.069Z,20.35
2022-08-26T11:07:37.832Z,18.73
2022-08-26T11:10:08.711Z,18.70
2022-08-26T11:12:50.655Z,18.52
2022-08-26T11:15:50.467Z,18.80
2022-08-26T11:18:45.654Z,20.38
2022-08-26T11:22:04.811Z,18.00
2022-08-26T11:25:00.329Z,17.40
2022-08-26T11:28:03.486Z,15.63
2022-08-26T11:30:42.733Z,17.95
2022-08-26T11:33:10.500Z,17.25
2022-08-26T11:35:50.840Z,18.90
2022-08-26T11:38:27.337Z,18.27
2022-08-26T11:41:08.915Z,20.35
2022-08-26T11:43:37.753Z,13.90
2022-08-26T11:46:07.316Z,12.80
2022-08-26T11:51:07.764Z,12.38
2022-08-26T11:53:37.193Z,13.57
2022-08-26T11:56:07.874Z,13.68
2022-08-26T11:58:35.776Z,14.45
2022-08-26T12:01:05.963Z,10.55
2022-08-26T12:03:41.159Z,11.77
2022-08-26T12:06:16.259Z,11.88
2022-08-26T12:08:44.646Z,14.85
2022-08-26T12:11:20.021Z,11.05
2022-08-26T12:13:54.659Z,11.73
2022-08-26T12:16:24.273Z,12.52
2022-08-26T12:18:51.889Z,14.68
2022-08-26T12:21:24.410Z,13.38
2022-08-26T12:23:53.805Z,14.48
2022-08-26T12:26:25.417Z,12.75
2022-08-26T12:28:55.578Z,16.25
2022-08-26T12:31:28.953Z,12.10
2022-08-26T12:33:56.996Z,16.08
2022-08-26T12:36:30.672Z,18.88
2022-08-26T12:39:05.248Z,14.35
2022-08-26T12:41:40.802Z,14.85
2022-08-26T12:44:07.960Z,16.45
2022-08-26T12:46:34.706Z,17.40
2022-08-26T12:49:01.425Z,14.10
2022-08-26T12:51:31.880Z,14.15
2022-08-26T12:53:59.150Z,15.85
2022-08-26T12:56:33.862Z,17.15
2022-08-26T12:59:19.039Z,14.48
2022-08-26T13:01:45.815Z,20.33
2022-08-26T13:04:40.925Z,13.50
2022-08-26T13:07:20.303Z,15.35
2022-08-26T13:09:47.007Z,16.30
2022-08-26T13:12:24.149Z,13.60
2022-08-26T13:14:50.776Z,13.20
2022-08-26T13:17:17.309Z,15.50
2022-08-26T13:19:44.102Z,13.32
2022-08-26T13:22:12.828Z,11.23
2022-08-26T13:24:43.141Z,11.85
2022-08-26T13:27:13.828Z,12.27
2022-08-26T13:29:41.046Z,12.25
2022-08-26T13:32:08.527Z,10.98
2022-08-26T13:34:37.283Z,14.35
2022-08-26T13:37:04.906Z,12.02
2022-08-26T13:39:31.579Z,10.82
2022-08-26T13:41:59.482Z,12.88
2022-08-26T13:44:26.049Z,9.68
2022-08-26T13:46:52.601Z,7.10
2022-08-26T13:49:19.172Z,9.30
2022-08-26T13:51:45.724Z,12.02
2022-08-26T13:54:12.301Z,8.77
2022-08-26T13:56:38.961Z,7.70
2022-08-26T13:59:06.934Z,9.32
2022-08-26T14:01:35.453Z,10.75
2022-08-26T14:04:02.370Z,7.65
2022-08-26T14:06:28.998Z,7.05
2022-08-26T14:08:55.550Z,11.57
2022-08-26T14:11:23.157Z,13.65
2022-08-26T14:13:49.773Z,7.30
2022-08-26T14:16:22.764Z,9.02
2022-08-26T14:18:50.889Z,7.80
2022-08-26T14:21:18.364Z,10.10
2022-08-26T14:23:45.090Z,7.25
2022-08-26T14:26:12.029Z,6.10
2022-08-26T14:28:54.474Z,6.03
2022-08-26T14:31:22.448Z,9.07
2022-08-26T14:33:49.185Z,6.70
2022-08-26T14:36:15.715Z,9.50
2022-08-26T14:38:42.396Z,11.25
2022-08-26T14:41:09.500Z,7.25
2022-08-26T14:43:36.241Z,6.72
2022-08-26T14:46:03.979Z,7.18
2022-08-26T14:48:32.049Z,8.60
2022-08-26T14:50:58.643Z,9.15
2022-08-26T14:53:25.285Z,8.10
2022-08-26T14:55:52.416Z,10.93
2022-08-26T14:58:19.097Z,8.00
2022-08-26T15:00:45.824Z,8.18
2022-08-26T15:03:12.582Z,13.52
2022-08-26T15:05:42.198Z,7.72
2022-08-26T15:08:09.788Z,9.77
2022-08-26T15:10:36.493Z,8.93
2022-08-26T15:13:03.125Z,6.93
2022-08-26T15:15:29.745Z,8.75
2022-08-26T15:17:56.409Z,9.68
2022-08-26T15:20:23.115Z,15.20
2022-08-26T15:22:51.141Z,7.78
2022-08-26T15:25:17.730Z,15.02
2022-08-26T15:27:44.598Z,8.38
2022-08-26T15:30:13.006Z,6.05
2022-08-26T15:32:39.654Z,7.88
2022-08-26T15:35:09.269Z,8.93
2022-08-26T15:37:36.275Z,17.65
2022-08-26T15:40:05.268Z,8.50
2022-08-26T15:42:32.058Z,9.63
2022-08-26T15:44:58.616Z,7.85
2022-08-26T15:47:25.245Z,11.98
2022-08-26T15:49:51.769Z,9.52
2022-08-26T15:52:18.418Z,6.25
2022-08-26T15:54:44.977Z,9.32
2022-08-26T15:57:15.365Z,9.50
2022-08-26T15:59:43.158Z,10.75
2022-08-26T16:02:09.807Z,8.82
2022-08-26T16:04:36.885Z,12.25
2022-08-26T16:07:03.845Z,11.73
2022-08-26T16:09:30.513Z,8.68
2022-08-26T16:11:57.467Z,17.40
2022-08-26T16:14:26.921Z,17.83
2022-08-26T16:16:53.469Z,9.95
2022-08-26T16:19:20.350Z,9.38
2022-08-26T16:21:46.988Z,11.20
2022-08-26T16:24:14.474Z,13.38
2022-08-26T16:26:43.026Z,10.10
2022-08-26T16:29:11.745Z,7.60
2022-08-26T16:31:39.836Z,10.10
2022-08-26T16:34:07.454Z,8.05
2022-08-26T16:36:34.371Z,11.30
2022-08-26T16:39:01.210Z,10.98
2022-08-26T16:41:29.509Z,10.18
2022-08-26T16:43:56.679Z,10.05
2022-08-26T16:46:24.516Z,12.63
2022-08-26T16:48:53.002Z,9.02
2022-08-26T16:51:21.715Z,9.15
2022-08-26T16:53:50.306Z,9.43
2022-08-26T16:56:20.473Z,9.88
2022-08-26T16:58:47.436Z,7.63
2022-08-26T17:01:14.454Z,9.60
2022-08-26T17:03:41.202Z,7.57
2022-08-26T17:06:09.906Z,10.85
2022-08-26T17:08:37.441Z,8.90
2022-08-26T17:11:04.333Z,10.50
2022-08-26T17:13:35.741Z,7.60
2022-08-26T17:16:04.267Z,9.23
2022-08-26T17:18:31.766Z,8.10
2022-08-26T17:21:00.876Z,10.38
2022-08-26T17:23:28.874Z,13.57
2022-08-26T17:25:55.457Z,10.95
2022-08-26T17:28:22.037Z,12.48
2022-08-26T17:30:48.694Z,12.20
2022-08-26T17:33:18.646Z,10.93
2022-08-26T17:35:48.813Z,8.13
2022-08-26T17:38:15.410Z,26.98
2022-08-26T17:40:43.400Z,18.45
2022-08-26T17:43:12.339Z,11.13
2022-08-26T17:45:39.922Z,11.02
2022-08-26T17:48:06.854Z,11.48
2022-08-26T17:50:33.550Z,12.15
2022-08-26T17:53:00.156Z,9.98
2022-08-26T17:55:26.917Z,10.38
2022-08-26T17:57:55.572Z,11.20
2022-08-26T18:00:27.013Z,9.80
2022-08-26T18:02:54.266Z,12.35
2022-08-26T18:05:21.872Z,11.77
2022-08-26T18:07:48.554Z,12.27
2022-08-26T18:10:20.868Z,13.40
2022-08-26T18:12:48.201Z,13.93
2022-08-26T18:15:17.306Z,8.70
2022-08-26T18:17:44.913Z,14.88
2022-08-26T18:20:14.273Z,8.10
2022-08-26T18:22:41.044Z,12.35
2022-08-26T18:25:08.648Z,11.13
2022-08-26T18:27:36.185Z,10.18
2022-08-26T18:30:04.457Z,11.10
2022-08-26T18:32:32.577Z,14.32
2022-08-26T18:34:59.323Z,11.27
2022-08-26T18:37:29.472Z,12.32
2022-08-26T18:39:58.125Z,10.35
2022-08-26T18:42:24.809Z,12.70
2022-08-26T18:44:51.652Z,11.30
2022-08-26T18:47:18.208Z,10.20
2022-08-26T18:49:46.257Z,8.75
2022-08-26T18:52:13.008Z,10.20
2022-08-26T18:54:39.731Z,14.32
2022-08-26T18:57:06.374Z,9.07
2022-08-26T18:59:33.792Z,7.80
2022-08-26T19:02:00.508Z,8.57
2022-08-26T19:04:27.350Z,9.90
2022-08-26T19:06:55.342Z,10.45
2022-08-26T19:09:22.008Z,8.63
2022-08-26T19:11:50.003Z,9.93
2022-08-26T19:14:17.682Z,10.30
2022-08-26T19:16:48.730Z,7.60
2022-08-26T19:19:16.501Z,6.75
2022-08-26T19:21:43.326Z,7.53
2022-08-26T19:24:15.872Z,9.30
2022-08-26T19:26:43.431Z,9.52
2022-08-26T19:29:10.005Z,7.53
2022-08-26T19:31:36.656Z,5.90
2022-08-26T19:34:03.986Z,8.00
2022-08-26T19:36:31.865Z,9.15
2022-08-26T19:38:58.495Z,7.50
2022-08-26T19:41:36.687Z,6.40
2022-08-26T19:44:06.954Z,7.85
2022-08-26T19:46:33.688Z,5.32
2022-08-26T19:49:00.241Z,6.70
2022-08-26T19:51:29.355Z,6.55
2022-08-26T19:53:58.088Z,7.68
2022-08-26T19:56:27.640Z,11.82
2022-08-26T19:58:55.013Z,11.95
2022-08-26T20:01:22.169Z,5.82
2022-08-26T20:03:49.216Z,7.63
2022-08-26T20:06:16.830Z,7.28
2022-08-26T20:08:44.190Z,5.80
2022-08-26T20:11:13.606Z,7.15
2022-08-26T20:13:42.577Z,9.18
2022-08-26T20:16:09.295Z,8.23
2022-08-26T20:18:35.919Z,6.05
2022-08-26T20:21:02.549Z,7.70
2022-08-26T20:23:29.118Z,7.78
2022-08-26T20:25:55.658Z,5.63
2022-08-26T20:28:22.229Z,8.02
2022-08-26T20:30:50.209Z,9.10
2022-08-26T20:33:16.758Z,6.18
2022-08-26T20:35:43.299Z,7.45
2022-08-26T20:38:09.964Z,8.77
2022-08-26T20:40:36.562Z,4.40
2022-08-26T20:43:03.156Z,5.25
2022-08-26T20:45:29.795Z,6.65
2022-08-26T20:47:57.861Z,6.35
2022-08-26T20:50:24.421Z,8.00
2022-08-26T20:52:50.962Z,8.27
2022-08-26T20:55:17.515Z,7.82
2022-08-26T20:57:44.046Z,6.70
2022-08-26T21:00:12.043Z,7.90
2022-08-26T21:02:38.777Z,10.77
2022-08-26T21:05:08.298Z,6.53
2022-08-26T21:07:35.601Z,10.45
2022-08-26T21:10:02.909Z,5.63
2022-08-26T21:12:29.715Z,8.98
2022-08-26T21:14:56.282Z,7.60
2022-08-26T21:17:22.856Z,6.80
2022-08-26T21:19:49.386Z,8.20
2022-08-26T21:22:17.315Z,8.88
2022-08-26T21:24:43.860Z,7.80
2022-08-26T21:27:10.789Z,10.40
2022-08-26T21:29:37.366Z,6.85
2022-08-26T21:32:04.462Z,9.63
2022-08-26T21:34:31.043Z,7.05
2022-08-26T21:36:57.756Z,7.63
2022-08-26T21:39:26.005Z,7.65
2022-08-26T21:41:52.543Z,9.63
2022-08-26T21:44:19.105Z,10.10
2022-08-26T21:46:46.285Z,12.50
2022-08-26T21:49:14.825Z,9.65
2022-08-26T21:51:44.180Z,8.45
2022-08-26T21:54:12.102Z,12.18
2022-08-26T21:56:42.681Z,9.82
2022-08-26T21:59:09.413Z,7.88
2022-08-26T22:01:36.491Z,8.93
2022-08-26T22:04:05.686Z,8.00
2022-08-26T22:06:34.658Z,8.30
2022-08-26T22:09:01.402Z,8.32
2022-08-26T22:11:28.365Z,9.02
2022-08-26T22:13:56.376Z,9.52
2022-08-26T22:16:23.153Z,9.45
2022-08-26T22:18:50.049Z,11.13
2022-08-26T22:21:19.265Z,14.02
2022-08-26T22:23:46.480Z,9.82
2022-08-26T22:26:15.640Z,9.82
2022-08-26T22:28:52.430Z,9.15
2022-08-26T22:31:37.078Z,11.18
2022-08-26T22:34:06.339Z,12.75
2022-08-26T22:36:32.860Z,9.40
2022-08-26T22:39:00.701Z,9.88
2022-08-26T22:41:27.461Z,10.10
2022-08-26T22:43:54.035Z,8.20
2022-08-26T22:46:25.597Z,13.80
2022-08-26T22:48:54.269Z,13.25
2022-08-26T22:51:21.889Z,9.27
2022-08-26T22:53:48.982Z,12.60
2022-08-26T22:56:15.909Z,11.88
2022-08-26T22:58:42.613Z,11.30
2022-08-26T23:01:09.383Z,14.00
2022-08-26T23:03:36.141Z,14.50
2022-08-26T23:06:06.321Z,10.88
2022-08-26T23:08:32.919Z,12.52
2022-08-26T23:10:59.511Z,12.00
2022-08-26T23:13:26.103Z,13.88
2022-08-26T23:16:00.617Z,12.13
2022-08-26T23:18:27.367Z,9.13
2022-08-26T23:20:54.339Z,11.98
2022-08-26T23:23:22.363Z,12.13
2022-08-26T23:25:48.959Z,10.07
2022-08-26T23:28:16.221Z,13.27
2022-08-26T23:30:42.836Z,10.63
2022-08-26T23:33:09.462Z,13.57
2022-08-26T23:35:35.997Z,12.27
2022-08-26T23:38:04.828Z,13.13
2022-08-26T23:40:34.680Z,15.13
2022-08-26T23:43:04.244Z,15.25
2022-08-26T23:45:31.309Z,11.80
2022-08-26T23:47:58.713Z,12.90
2022-08-26T23:50:27.654Z,17.05
2022-08-26T23:52:54.205Z,10.25
2022-08-26T23:55:20.835Z,9.23
2022-08-26T23:57:49.173Z,10.65
